Time;durP1;ratioP1;P1;durP2;ratioP2;P2;SDS_P1;SDS_P2;PMS_P1;PMS_P2;Temp;Humidity;BMP_temperature;BMP_pressure;BME280_temperature;BME280_humidity;BME280_pressure;Samples;Min_cycle;Max_cycle;Signal;HPM_P1;HPM_P2
2021/12/03 00:00:31;;;;;;;20.25;14.85;;;3.80;78.10;;;;;;5007120;28;20045;-50
2021/12/03 00:03:02;;;;;;;21.73;16.25;;;3.80;78.20;;;;;;4806482;28;6101111;-52
2021/12/03 00:05:32;;;;;;;21.25;15.38;;;3.80;78.40;;;;;;5029609;28;20555;-48
2021/12/03 00:07:59;;;;;;;21.85;17.10;;;3.90;78.50;;;;;;5014665;28;20046;-51
2021/12/03 00:10:26;;;;;;;25.30;16.95;;;3.90;78.40;;;;;;5007521;28;20041;-51
2021/12/03 00:12:54;;;;;;;21.85;16.83;;;3.90;78.40;;;;;;5015838;28;20072;-49
2021/12/03 00:15:25;;;;;;;19.50;16.05;;;4.00;78.40;;;;;;5020599;28;20103;-49
2021/12/03 00:17:53;;;;;;;22.10;16.63;;;3.90;78.50;;;;;;5006667;28;20045;-48
2021/12/03 00:20:22;;;;;;;21.40;16.58;;;4.00;78.60;;;;;;5008689;28;20506;-48
2021/12/03 00:22:51;;;;;;;25.52;18.00;;;4.00;78.70;;;;;;5024388;28;20065;-52
2021/12/03 00:25:19;;;;;;;21.77;16.00;;;4.10;78.90;;;;;;5028619;28;20056;-47
2021/12/03 00:27:48;;;;;;;25.45;19.05;;;4.10;79.00;;;;;;5022433;28;20116;-51
2021/12/03 00:30:17;;;;;;;25.13;17.45;;;4.10;79.10;;;;;;5008410;28;20711;-48
2021/12/03 00:32:45;;;;;;;27.88;18.75;;;4.10;79.30;;;;;;5027542;28;20479;-51
2021/12/03 00:35:13;;;;;;;29.55;19.73;;;4.20;79.50;;;;;;5028834;28;20103;-52
2021/12/03 00:37:44;;;;;;;32.75;19.25;;;4.20;79.60;;;;;;5008888;28;20038;-49
2021/12/03 00:40:17;;;;;;;28.45;20.08;;;4.30;79.70;;;;;;5007907;28;20049;-49
2021/12/03 00:42:49;;;;;;;26.42;18.40;;;4.30;79.80;;;;;;5014701;28;20140;-48
2021/12/03 00:45:19;;;;;;;25.10;17.50;;;4.40;79.70;;;;;;5028867;28;20402;-48
2021/12/03 00:47:47;;;;;;;26.52;18.05;;;4.40;79.60;;;;;;5021089;28;20057;-52
2021/12/03 00:50:18;;;;;;;29.70;18.63;;;4.40;79.30;;;;;;5016194;28;20046;-51
2021/12/03 00:52:44;;;;;;;26.60;16.98;;;4.50;79.40;;;;;;5028901;28;20051;-51
2021/12/03 00:55:12;;;;;;;27.45;17.55;;;4.50;79.30;;;;;;5028617;28;20053;-52
2021/12/03 00:57:39;;;;;;;26.58;16.92;;;4.60;79.20;;;;;;5011808;28;20108;-51
2021/12/03 01:00:13;;;;;;;26.60;17.77;;;4.60;79.20;;;;;;5028291;28;20057;-48
2021/12/03 01:02:40;;;;;;;28.83;17.35;;;4.60;79.30;;;;;;4988551;28;20057;-52
2021/12/03 01:05:10;;;;;;;32.90;17.92;;;4.60;79.20;;;;;;5002654;28;20052;-48
2021/12/03 01:07:37;;;;;;;21.17;15.82;;;4.60;79.20;;;;;;5024667;28;20049;-48
2021/12/03 01:10:05;;;;;;;26.40;16.30;;;4.70;79.20;;;;;;5043322;22;20034;-48
2021/12/03 01:12:32;;;;;;;25.80;15.80;;;4.70;79.00;;;;;;5029205;28;20046;-47
2021/12/03 01:14:59;;;;;;;22.65;15.80;;;4.70;79.00;;;;;;5027775;28;20500;-46
2021/12/03 01:17:31;;;;;;;33.92;18.00;;;4.70;79.00;;;;;;5027080;28;20069;-48
2021/12/03 01:19:59;;;;;;;23.95;16.02;;;4.70;78.90;;;;;;5028594;28;20416;-46
2021/12/03 01:22:26;;;;;;;24.42;16.98;;;4.80;78.90;;;;;;5029459;28;20107;-47
2021/12/03 01:24:53;;;;;;;25.02;15.90;;;4.80;78.90;;;;;;5028911;28;20046;-46
2021/12/03 01:27:26;;;;;;;23.80;15.75;;;4.80;78.90;;;;;;5010779;28;20046;-50
2021/12/03 01:29:55;;;;;;;24.02;16.65;;;4.80;78.80;;;;;;5024232;28;20049;-46
2021/12/03 01:32:28;;;;;;;27.38;16.80;;;4.80;78.80;;;;;;5029470;28;20045;-47
2021/12/03 01:34:55;;;;;;;31.65;16.27;;;4.80;78.80;;;;;;5017601;28;20049;-49
2021/12/03 01:37:22;;;;;;;24.23;16.08;;;4.90;78.90;;;;;;5014145;28;20100;-48
2021/12/03 01:39:52;;;;;;;26.58;16.98;;;4.90;78.90;;;;;;5028563;28;20069;-47
2021/12/03 01:42:18;;;;;;;27.27;16.25;;;4.90;78.80;;;;;;5016639;28;20051;-48
2021/12/03 01:44:45;;;;;;;25.33;16.70;;;4.90;78.70;;;;;;5017037;28;20091;-47
2021/12/03 01:47:12;;;;;;;25.73;16.40;;;4.90;78.70;;;;;;5028799;28;20645;-46
2021/12/03 01:49:39;;;;;;;27.92;16.58;;;4.90;78.70;;;;;;5021157;28;20037;-45
2021/12/03 01:52:09;;;;;;;33.05;17.27;;;5.00;78.70;;;;;;5009522;28;20112;-47
2021/12/03 01:54:38;;;;;;;35.03;19.02;;;5.00;78.70;;;;;;5005436;28;20053;-47
2021/12/03 01:57:05;;;;;;;31.15;17.58;;;5.00;78.50;;;;;;5023973;28;20046;-46
2021/12/03 01:59:35;;;;;;;28.95;17.55;;;5.00;78.60;;;;;;5029747;28;20119;-46
2021/12/03 02:02:09;;;;;;;32.88;16.85;;;5.00;78.50;;;;;;5016522;28;20047;-46
2021/12/03 02:04:36;;;;;;;27.60;18.48;;;5.00;78.40;;;;;;5019795;28;20109;-45
2021/12/03 02:07:05;;;;;;;28.73;17.80;;;5.00;78.40;;;;;;5023216;28;20096;-47
2021/12/03 02:09:34;;;;;;;30.85;16.92;;;5.00;78.40;;;;;;5030764;28;20045;-47
2021/12/03 02:12:01;;;;;;;29.35;16.45;;;5.00;78.40;;;;;;5007458;28;20046;-45
2021/12/03 02:14:27;;;;;;;25.45;16.13;;;5.00;78.40;;;;;;5027617;28;20076;-46
2021/12/03 02:16:54;;;;;;;27.42;16.05;;;5.00;78.40;;;;;;5026069;28;20053;-45
2021/12/03 02:19:29;;;;;;;33.10;17.25;;;5.00;78.40;;;;;;5032226;28;20063;-45
2021/12/03 02:21:57;;;;;;;31.15;17.27;;;5.00;78.40;;;;;;5015709;28;20136;-46
2021/12/03 02:24:24;;;;;;;34.78;15.95;;;5.00;78.50;;;;;;5033102;28;20088;-46
2021/12/03 02:26:51;;;;;;;27.38;15.85;;;5.00;78.40;;;;;;5031864;28;20052;-46
2021/12/03 02:29:18;;;;;;;29.75;15.38;;;5.10;78.60;;;;;;5023966;28;20089;-46
2021/12/03 02:31:45;;;;;;;32.55;15.60;;;5.10;78.60;;;;;;5014070;28;20071;-46
2021/12/03 02:34:16;;;;;;;24.80;14.55;;;5.10;78.60;;;;;;5030434;28;20415;-51
2021/12/03 02:36:43;;;;;;;29.98;15.25;;;5.10;78.60;;;;;;5031640;28;20045;-45
2021/12/03 02:39:10;;;;;;;28.27;15.60;;;5.10;78.50;;;;;;5030200;28;20456;-50
2021/12/03 02:41:39;;;;;;;25.45;15.07;;;5.10;78.40;;;;;;5016728;28;20050;-50
2021/12/03 02:44:06;;;;;;;23.67;15.57;;;5.10;78.40;;;;;;5033309;28;20445;-46
2021/12/03 02:46:32;;;;;;;27.88;15.35;;;5.10;78.50;;;;;;5031970;28;20088;-49
2021/12/03 02:49:05;;;;;;;28.23;14.75;;;5.10;78.60;;;;;;5019405;28;20412;-49
2021/12/03 02:51:32;;;;;;;;;;;5.10;78.60;;;;;;5019982;28;20529;-49
2021/12/03 02:54:03;;;;;;;20.45;12.25;;;5.20;78.70;;;;;;5032873;28;19928;-47
2021/12/03 02:56:30;;;;;;;22.55;13.43;;;5.20;78.40;;;;;;5030696;28;20115;-50
2021/12/03 02:58:56;;;;;;;27.15;13.98;;;5.20;78.40;;;;;;5019925;28;20116;-49
2021/12/03 03:01:24;;;;;;;23.20;13.40;;;5.20;78.30;;;;;;5024421;28;20037;-48
2021/12/03 03:03:51;;;;;;;21.48;12.77;;;5.20;78.40;;;;;;5032586;28;20065;-46
2021/12/03 03:06:18;;;;;;;18.50;12.38;;;5.20;78.40;;;;;;5029744;28;20084;-48
2021/12/03 03:08:47;;;;;;;21.52;13.15;;;5.20;78.50;;;;;;5007653;28;20038;-46
2021/12/03 03:11:16;;;;;;;20.85;11.80;;;5.20;78.40;;;;;;5019670;28;20439;-45
2021/12/03 03:13:42;;;;;;;20.83;12.35;;;5.20;78.40;;;;;;5032654;28;20517;-47
2021/12/03 03:16:11;;;;;;;19.95;12.05;;;5.20;78.40;;;;;;5015661;28;20042;-46
2021/12/03 03:18:38;;;;;;;21.35;12.18;;;5.20;78.40;;;;;;5012621;28;20532;-48
2021/12/03 03:21:05;;;;;;;19.83;12.65;;;5.20;78.40;;;;;;5026331;28;20061;-47
2021/12/03 03:23:33;;;;;;;20.95;13.93;;;5.30;78.40;;;;;;5032275;28;20037;-47
2021/12/03 03:26:01;;;;;;;18.15;12.25;;;5.30;78.40;;;;;;5029146;28;20091;-46
2021/12/03 03:28:31;;;;;;;21.77;13.40;;;5.30;78.40;;;;;;5017763;28;20042;-48
2021/12/03 03:30:59;;;;;;;20.65;12.27;;;5.30;78.40;;;;;;5031654;28;20095;-49
2021/12/03 03:33:27;;;;;;;20.98;12.68;;;5.30;78.40;;;;;;5031813;28;20037;-49
2021/12/03 03:35:54;;;;;;;22.95;12.02;;;5.30;78.40;;;;;;5016594;28;20045;-46
2021/12/03 03:38:22;;;;;;;17.58;12.38;;;5.30;78.30;;;;;;5029682;28;20061;-46
2021/12/03 03:40:50;;;;;;;18.95;12.23;;;5.30;78.30;;;;;;5031941;28;20045;-47
2021/12/03 03:43:20;;;;;;;20.23;12.27;;;5.30;78.30;;;;;;5010401;28;20414;-46
2021/12/03 03:45:48;;;;;;;21.15;11.55;;;5.30;78.30;;;;;;5019029;28;20100;-50
2021/12/03 03:48:18;;;;;;;17.80;12.10;;;5.30;78.30;;;;;;5022851;28;20128;-50
2021/12/03 03:50:47;;;;;;;19.92;13.48;;;5.30;78.30;;;;;;5031053;28;20046;-48
2021/12/03 03:53:25;;;;;;;20.27;12.27;;;5.30;78.20;;;;;;5018908;28;20062;-48
2021/12/03 03:55:52;;;;;;;20.60;12.13;;;5.40;78.30;;;;;;5010962;28;20049;-48
2021/12/03 03:58:22;;;;;;;23.15;13.27;;;5.40;78.40;;;;;;5030904;28;20135;-49
2021/12/03 04:00:49;;;;;;;22.77;13.32;;;5.40;78.30;;;;;;5022270;28;20696;-46
2021/12/03 04:03:16;;;;;;;23.77;12.05;;;5.40;78.40;;;;;;5023943;28;20545;-49
2021/12/03 04:05:43;;;;;;;23.27;13.20;;;5.40;78.40;;;;;;5014941;28;20123;-48
2021/12/03 04:08:10;;;;;;;19.63;12.05;;;5.40;79.00;;;;;;5024289;28;20038;-46
2021/12/03 04:10:36;;;;;;;25.23;14.00;;;5.40;78.40;;;;;;5018202;28;20096;-49
2021/12/03 04:13:03;;;;;;;24.05;13.98;;;5.40;78.40;;;;;;5008698;28;20046;-46
2021/12/03 04:15:33;;;;;;;21.42;12.68;;;5.40;78.40;;;;;;5015560;28;20049;-49
2021/12/03 04:18:02;;;;;;;17.70;13.02;;;5.40;78.40;;;;;;5030516;28;20061;-47
2021/12/03 04:20:32;;;;;;;24.75;13.85;;;5.40;78.40;;;;;;5030657;28;20107;-46
2021/12/03 04:22:59;;;;;;;26.60;14.68;;;5.50;78.40;;;;;;5014885;28;20088;-48
2021/12/03 04:25:30;;;;;;;25.77;14.57;;;5.50;78.40;;;;;;5008739;28;20046;-49
2021/12/03 04:27:57;;;;;;;29.95;15.20;;;5.50;78.50;;;;;;5009151;28;20092;-47
2021/12/03 04:30:29;;;;;;;25.70;14.43;;;5.50;78.40;;;;;;4998394;28;20046;-49
2021/12/03 04:32:57;;;;;;;25.63;14.02;;;5.50;78.50;;;;;;5005964;28;20038;-49
2021/12/03 04:35:25;;;;;;;25.13;13.82;;;5.50;78.60;;;;;;5006112;28;20046;-49
2021/12/03 04:37:55;;;;;;;23.70;13.18;;;5.50;78.60;;;;;;5000652;28;20038;-50
2021/12/03 04:40:26;;;;;;;25.55;14.40;;;5.50;78.60;;;;;;5008272;28;20757;-50
2021/12/03 04:42:53;;;;;;;29.90;14.90;;;5.60;78.50;;;;;;5005518;28;20092;-47
2021/12/03 04:45:23;;;;;;;25.33;14.43;;;5.60;78.50;;;;;;5007028;28;20038;-46
2021/12/03 04:47:52;;;;;;;26.52;14.40;;;5.60;78.50;;;;;;4999439;28;20080;-46
2021/12/03 04:50:23;;;;;;;24.65;14.27;;;5.60;78.50;;;;;;5001123;28;20034;-47
2021/12/03 04:52:53;;;;;;;28.60;15.48;;;5.60;79.20;;;;;;5011691;28;20053;-46
2021/12/03 04:55:21;;;;;;;33.03;16.15;;;5.60;78.60;;;;;;5027536;28;20037;-46
2021/12/03 04:57:50;;;;;;;29.35;16.20;;;5.60;78.60;;;;;;5012055;28;20078;-50
2021/12/03 05:00:21;;;;;;;28.65;15.48;;;5.60;78.60;;;;;;5010930;28;20045;-51
2021/12/03 05:02:53;;;;;;;26.27;13.90;;;5.70;78.60;;;;;;5016886;28;20500;-48
2021/12/03 05:05:24;;;;;;;27.13;16.00;;;5.70;78.60;;;;;;5029050;28;20038;-48
2021/12/03 05:07:57;;;;;;;25.17;14.35;;;5.70;78.70;;;;;;5013849;28;20358;-46
2021/12/03 05:10:30;;;;;;;28.10;16.42;;;5.70;78.60;;;;;;5010535;28;20033;-46
2021/12/03 05:13:03;;;;;;;29.63;14.10;;;5.70;78.60;;;;;;5002340;28;20100;-47
2021/12/03 05:15:34;;;;;;;26.52;14.43;;;5.80;78.60;;;;;;4998849;28;20128;-46
2021/12/03 05:18:04;;;;;;;29.88;14.68;;;5.80;78.70;;;;;;4999929;28;20041;-46
2021/12/03 05:20:30;;;;;;;27.00;14.38;;;5.80;78.70;;;;;;5002423;28;20041;-50
2021/12/03 05:22:57;;;;;;;26.88;15.77;;;5.80;78.60;;;;;;5004299;28;20494;-47
2021/12/03 05:25:24;;;;;;;29.90;14.80;;;5.80;78.60;;;;;;5004951;28;20100;-47
2021/12/03 05:27:52;;;;;;;25.80;13.68;;;5.80;78.60;;;;;;5000612;28;20116;-48
2021/12/03 05:30:19;;;;;;;23.77;14.73;;;5.80;78.70;;;;;;5009397;28;20608;-46
2021/12/03 05:32:46;;;;;;;25.50;14.50;;;5.90;78.70;;;;;;5018226;28;20053;-46
2021/12/03 05:35:13;;;;;;;25.33;13.68;;;5.90;78.70;;;;;;4999271;28;20096;-46
2021/12/03 05:37:41;;;;;;;27.02;14.65;;;5.90;78.60;;;;;;5001106;28;20056;-46
2021/12/03 05:40:14;;;;;;;29.45;14.95;;;5.90;78.50;;;;;;5005170;28;20709;-45
2021/12/03 05:42:43;;;;;;;33.85;14.15;;;5.90;78.40;;;;;;5001860;28;20100;-50
2021/12/03 05:45:12;;;;;;;26.02;14.65;;;5.90;78.40;;;;;;4997220;28;20039;-47
2021/12/03 05:47:40;;;;;;;29.17;14.82;;;5.90;78.40;;;;;;5005004;28;20103;-49
2021/12/03 05:50:10;;;;;;;25.05;14.60;;;5.90;78.30;;;;;;5011542;28;20039;-49
2021/12/03 05:52:37;;;;;;;31.70;15.45;;;6.00;78.40;;;;;;5004949;28;20058;-46
2021/12/03 05:55:05;;;;;;;24.95;13.32;;;6.00;78.40;;;;;;4999678;28;20073;-49
2021/12/03 05:57:32;;;;;;;26.55;14.32;;;6.00;78.30;;;;;;5012182;28;20076;-47
2021/12/03 06:00:08;;;;;;;27.05;13.95;;;6.00;78.30;;;;;;5009656;28;20041;-47
2021/12/03 06:02:39;;;;;;;29.52;14.70;;;6.00;78.30;;;;;;5020659;28;20511;-48
2021/12/03 06:05:08;;;;;;;23.23;12.73;;;6.00;78.20;;;;;;5028679;28;20072;-45
2021/12/03 06:07:35;;;;;;;22.20;12.00;;;6.00;78.10;;;;;;5014768;28;20779;-47
2021/12/03 06:10:04;;;;;;;28.10;13.63;;;6.00;78.10;;;;;;5014256;28;20080;-48
2021/12/03 06:12:33;;;;;;;21.88;11.98;;;6.00;78.10;;;;;;5006822;28;20038;-46
2021/12/03 06:15:04;;;;;;;21.90;11.43;;;6.00;77.90;;;;;;5007642;28;20052;-50
2021/12/03 06:17:30;;;;;;;25.25;11.80;;;6.00;77.80;;;;;;5012528;28;20045;-49
2021/12/03 06:19:57;;;;;;;20.55;11.32;;;6.00;77.70;;;;;;5028530;28;20501;-47
2021/12/03 06:22:24;;;;;;;20.58;10.75;;;6.00;77.60;;;;;;5008657;28;20048;-47
2021/12/03 06:24:51;;;;;;;18.48;10.10;;;6.00;77.50;;;;;;5017224;28;20115;-47
2021/12/03 06:27:18;;;;;;;19.17;10.77;;;5.90;77.40;;;;;;5018861;28;20108;-49
2021/12/03 06:29:44;;;;;;;16.88;10.02;;;5.90;77.40;;;;;;5018168;28;20038;-49
2021/12/03 06:32:11;;;;;;;20.10;9.60;;;5.90;77.40;;;;;;5017304;28;20045;-45
2021/12/03 06:34:38;;;;;;;17.55;9.45;;;5.90;77.40;;;;;;5010881;28;20049;-48
2021/12/03 06:37:06;;;;;;;20.38;9.50;;;5.80;77.40;;;;;;5001204;28;20038;-47
2021/12/03 06:39:36;;;;;;;14.43;7.85;;;5.80;77.40;;;;;;5007140;28;20045;-50
2021/12/03 06:42:04;;;;;;;19.48;9.63;;;5.80;77.40;;;;;;5007246;28;20050;-49
2021/12/03 06:44:35;;;;;;;14.80;8.40;;;5.80;77.40;;;;;;5004743;28;20117;-49
2021/12/03 06:47:04;;;;;;;15.35;8.35;;;5.80;77.50;;;;;;5015544;28;20033;-49
2021/12/03 06:49:33;;;;;;;14.25;7.32;;;5.80;77.50;;;;;;5023419;28;20054;-51
2021/12/03 06:52:04;;;;;;;24.67;7.82;;;5.80;77.50;;;;;;5008146;28;20802;-49
2021/12/03 06:54:33;;;;;;;17.67;8.43;;;5.80;77.40;;;;;;5008663;28;20037;-48
2021/12/03 06:57:02;;;;;;;18.63;7.63;;;5.70;77.30;;;;;;5025365;28;20055;-50
2021/12/03 06:59:29;;;;;;;19.02;7.85;;;5.70;77.30;;;;;;5031013;28;20049;-46
2021/12/03 07:01:56;;;;;;;19.58;8.82;;;5.70;77.20;;;;;;5013974;28;20054;-49
2021/12/03 07:04:23;;;;;;;14.38;7.55;;;5.70;77.20;;;;;;5022283;28;20038;-47
2021/12/03 07:06:50;;;;;;;17.58;8.05;;;5.70;77.20;;;;;;5019023;28;20453;-49
2021/12/03 07:09:20;;;;;;;13.57;7.22;;;5.70;77.30;;;;;;5011146;28;20096;-49
2021/12/03 07:11:47;;;;;;;20.25;8.30;;;5.70;78.00;;;;;;5005592;28;20041;-48
2021/12/03 07:14:18;;;;;;;17.30;7.80;;;5.70;77.50;;;;;;5007979;28;20038;-46
2021/12/03 07:16:45;;;;;;;16.92;7.47;;;5.70;77.50;;;;;;5008216;28;20033;-46
2021/12/03 07:19:12;;;;;;;12.20;7.15;;;5.70;77.50;;;;;;5037332;22;20405;-48
2021/12/03 07:21:40;;;;;;;15.38;7.18;;;5.60;77.40;;;;;;5027866;28;20452;-49
2021/12/03 07:24:07;;;;;;;15.05;7.28;;;5.60;77.40;;;;;;5044270;28;20041;-49
2021/12/03 07:26:34;;;;;;;16.48;7.50;;;5.70;77.50;;;;;;5030301;28;20443;-49
2021/12/03 07:29:01;;;;;;;13.98;6.53;;;5.60;77.40;;;;;;5028469;28;20448;-48
2021/12/03 07:31:28;;;;;;;15.45;7.00;;;5.70;77.50;;;;;;5017198;28;20038;-49
2021/12/03 07:33:57;;;;;;;17.45;7.43;;;5.70;77.40;;;;;;5028618;28;20045;-49
2021/12/03 07:36:24;;;;;;;15.32;7.15;;;5.70;77.30;;;;;;5023507;28;20038;-49
2021/12/03 07:38:51;;;;;;;15.60;6.82;;;5.70;77.30;;;;;;5012584;28;20449;-52
2021/12/03 07:41:18;;;;;;;13.38;6.70;;;5.70;77.20;;;;;;5005417;28;20065;-53
2021/12/03 07:43:44;;;;;;;21.15;7.55;;;5.70;77.10;;;;;;5024234;28;20168;-51
2021/12/03 07:46:11;;;;;;;13.98;6.35;;;5.70;77.00;;;;;;5030611;28;20088;-52
2021/12/03 07:48:38;;;;;;;9.93;5.63;;;5.70;76.90;;;;;;5029306;28;20412;-49
2021/12/03 07:51:05;;;;;;;12.60;5.72;;;5.70;76.80;;;;;;5010552;28;20038;-48
2021/12/03 07:53:32;;;;;;;12.90;5.45;;;5.70;76.80;;;;;;5010300;28;20494;-49
2021/12/03 07:55:58;;;;;;;14.70;5.70;;;5.70;76.80;;;;;;5030441;28;20088;-48
2021/12/03 07:58:25;;;;;;;13.90;5.95;;;5.70;76.80;;;;;;5002250;28;20049;-49
2021/12/03 08:00:57;;;;;;;13.93;5.47;;;5.70;76.70;;;;;;5018090;28;20049;-49
2021/12/03 08:03:26;;;;;;;13.57;5.18;;;5.70;76.50;;;;;;5030511;28;20041;-49
2021/12/03 08:05:53;;;;;;;14.05;5.10;;;5.80;76.50;;;;;;5012640;28;20129;-47
2021/12/03 08:08:23;;;;;;;12.93;5.03;;;5.80;76.70;;;;;;5007231;28;20042;-47
2021/12/03 08:10:55;;;;;;;10.95;4.85;;;5.80;76.70;;;;;;5011588;28;20065;-47
2021/12/03 08:13:22;;;;;;;16.27;5.20;;;6.00;76.70;;;;;;5023941;28;20038;-49
2021/12/03 08:15:49;;;;;;;12.57;4.40;;;5.80;76.50;;;;;;5007755;28;20046;-51
2021/12/03 08:18:15;;;;;;;12.55;5.18;;;5.80;76.40;;;;;;5013312;28;20104;-49
2021/12/03 08:20:45;;;;;;;12.70;5.63;;;5.90;76.50;;;;;;5007023;28;20046;-48
2021/12/03 08:23:12;;;;;;;11.55;5.68;;;5.90;76.50;;;;;;5002722;28;20042;-49
2021/12/03 08:25:39;;;;;;;11.80;5.13;;;5.90;76.40;;;;;;5009002;28;20030;-49
2021/12/03 08:28:07;;;;;;;10.95;5.57;;;5.90;76.30;;;;;;5003158;28;20107;-49
2021/12/03 08:30:33;;;;;;;17.70;5.57;;;5.90;76.20;;;;;;5008332;28;20045;-48
2021/12/03 08:33:03;;;;;;;12.90;5.63;;;6.00;76.00;;;;;;5008516;28;20049;-51
2021/12/03 08:35:32;;;;;;;9.52;5.00;;;6.00;76.10;;;;;;5007942;28;20046;-51
2021/12/03 08:37:59;;;;;;;12.00;4.70;;;6.00;76.10;;;;;;5013362;28;20055;-49
2021/12/03 08:40:26;;;;;;;13.43;6.20;;;6.00;76.10;;;;;;5013150;28;20092;-50
2021/12/03 08:42:55;;;;;;;13.00;5.20;;;6.10;76.00;;;;;;5010772;28;20038;-48
2021/12/03 08:45:22;;;;;;;9.52;5.45;;;6.10;76.10;;;;;;5007132;28;20043;-48
2021/12/03 08:47:51;;;;;;;12.52;6.72;;;6.10;76.00;;;;;;5017186;28;20042;-49
2021/12/03 08:50:28;;;;;;;10.90;5.25;;;6.10;75.90;;;;;;5030337;28;20041;-48
2021/12/03 08:53:12;;;;;;;15.60;5.30;;;6.20;75.90;;;;;;4997240;28;20490;-47
2021/12/03 08:55:40;;;;;;;14.80;5.30;;;6.20;76.00;;;;;;5009711;28;20453;-48
2021/12/03 08:58:07;;;;;;;14.90;5.05;;;6.30;75.80;;;;;;5027399;28;20072;-48
2021/12/03 09:00:36;;;;;;;17.13;5.82;;;6.30;75.70;;;;;;5029288;28;20053;-48
2021/12/03 09:03:04;;;;;;;14.35;5.65;;;6.30;75.60;;;;;;5007880;28;20045;-47
2021/12/03 09:05:36;;;;;;;8.60;4.70;;;6.40;75.60;;;;;;5014259;28;20041;-50
2021/12/03 09:08:03;;;;;;;15.97;5.57;;;6.40;75.60;;;;;;5014664;28;20113;-49
2021/12/03 09:10:37;;;;;;;12.05;5.15;;;6.40;75.50;;;;;;5017229;28;20066;-49
2021/12/03 09:13:09;;;;;;;13.35;5.70;;;6.50;75.50;;;;;;4992081;28;20073;-48
2021/12/03 09:15:42;;;;;;;16.48;5.22;;;6.50;75.30;;;;;;5007169;28;20044;-48
2021/12/03 09:21:01;;;;;;;11.10;5.57;;;6.50;75.10;;;;;;5024935;28;20096;-48
2021/12/03 09:25:53;;;;;;;14.65;5.10;;;6.60;75.10;;;;;;5015730;28;20045;-49
2021/12/03 09:28:22;;;;;;;13.10;5.18;;;6.60;75.10;;;;;;5029998;28;20042;-47
2021/12/03 09:30:49;;;;;;;12.52;5.50;;;6.60;74.90;;;;;;5022831;28;20053;-48
2021/12/03 09:33:18;;;;;;;14.80;5.85;;;6.60;74.70;;;;;;5008366;28;20045;-49
2021/12/03 09:35:50;;;;;;;16.40;5.20;;;6.70;74.70;;;;;;5027001;28;20053;-52
2021/12/03 09:38:17;;;;;;;9.85;5.15;;;6.70;74.60;;;;;;5010302;28;20081;-49
2021/12/03 09:40:44;;;;;;;12.32;5.50;;;6.70;74.60;;;;;;5009132;28;20045;-48
2021/12/03 09:43:11;;;;;;;10.13;4.82;;;6.80;74.60;;;;;;5011833;28;20045;-49
2021/12/03 09:45:40;;;;;;;13.60;5.50;;;6.80;74.60;;;;;;5024678;28;20072;-48
2021/12/03 09:48:25;;;;;;;7.78;4.38;;;6.80;74.50;;;;;;5000588;28;20387;-50
2021/12/03 09:50:52;;;;;;;11.13;5.47;;;6.80;74.30;;;;;;4998959;28;20041;-47
2021/12/03 09:55:52;;;;;;;10.35;4.53;;;6.90;74.40;;;;;;5001366;28;20054;-51
2021/12/03 10:01:20;;;;;;;10.27;4.72;;;7.10;74.20;;;;;;5001750;28;20514;-49
2021/12/03 10:45:32;;;;;;;11.73;4.70;;;7.60;72.30;;;;;;4994004;28;20186;-50
2021/12/03 10:59:04;;;;;;;8.10;4.40;;;7.70;72.60;;;;;;5008257;28;20030;-48
2021/12/03 11:08:03;;;;;;;8.40;4.25;;;7.90;72.40;;;;;;5012464;28;20141;-51
2021/12/03 11:27:47;;;;;;;9.40;4.82;;;8.10;71.80;;;;;;5025908;28;20091;-49
2021/12/03 11:53:37;;;;;;;11.07;5.05;;;8.20;70.50;;;;;;5014586;28;20041;-50
2021/12/03 11:59:11;;;;;;;9.13;4.97;;;8.20;70.50;;;;;;5030361;28;20045;-49
2021/12/03 12:32:11;;;;;;;7.87;3.90;;;8.50;70.20;;;;;;4955185;28;20098;-49
2021/12/03 13:12:09;;;;;;;5.53;3.35;;;8.80;68.40;;;;;;5021009;28;20038;-49
2021/12/03 13:20:21;;;;;;;5.18;3.15;;;8.90;68.10;;;;;;5004105;28;20489;-49
2021/12/03 13:39:24;;;;;;;6.22;3.22;;;8.80;67.10;;;;;;5004403;28;20533;-49
2021/12/03 14:10:01;;;;;;;5.65;4.13;;;8.60;66.80;;;;;;5006177;28;20441;-50
2021/12/03 14:13:44;;;;;;;5.75;3.08;;;8.60;67.00;;;;;;4998499;28;20038;-50
2021/12/03 14:37:10;;;;;;;7.40;3.33;;;8.40;66.90;;;;;;5006584;28;20038;-50
2021/12/03 14:39:48;;;;;;;4.40;3.78;;;8.40;67.00;;;;;;5004571;28;20088;-49
2021/12/03 14:45:14;;;;;;;4.20;3.20;;;8.40;67.10;;;;;;4999710;28;20042;-48
2021/12/03 14:56:15;;;;;;;4.57;3.30;;;8.30;67.40;;;;;;5031662;28;20099;-51
2021/12/03 14:58:50;;;;;;;4.95;2.85;;;8.30;67.70;;;;;;5018682;28;20080;-49
2021/12/03 15:04:45;;;;;;;8.27;3.35;;;8.20;68.00;;;;;;5030072;28;20079;-48
2021/12/03 15:07:19;;;;;;;4.25;3.03;;;8.20;68.00;;;;;;5000491;28;20034;-51
2021/12/03 15:09:47;;;;;;;9.93;3.85;;;8.20;68.20;;;;;;5011555;28;20041;-51
2021/12/03 15:28:26;;;;;;;4.75;2.55;;;8.10;68.40;;;;;;5031577;28;19925;-48
2021/12/03 15:33:54;;;;;;;5.72;4.28;;;8.10;69.20;;;;;;5008190;28;20062;-47
2021/12/03 15:36:39;;;;;;;5.85;3.60;;;8.00;69.30;;;;;;5000710;28;20121;-52
2021/12/03 15:56:23;;;;;;;10.70;8.98;;;8.00;70.10;;;;;;4995322;28;20058;-53
2021/12/03 16:04:27;;;;;;;6.43;5.15;;;8.00;70.20;;;;;;4996318;28;20045;-52
2021/12/03 16:23:05;;;;;;;7.93;3.08;;;8.10;70.00;;;;;;5001883;28;20096;-50
2021/12/03 16:25:51;;;;;;;2.58;2.35;;;8.00;69.90;;;;;;4994737;28;20034;-52
2021/12/03 16:45:09;;;;;;;4.45;3.35;;;8.20;69.90;;;;;;4998540;28;20073;-48
2021/12/03 16:48:03;;;;;;;4.45;2.70;;;8.20;70.00;;;;;;4997682;28;20042;-52
2021/12/03 16:50:51;;;;;;;4.10;2.50;;;8.20;69.90;;;;;;4999129;28;20038;-48
2021/12/03 16:53:22;;;;;;;5.10;2.63;;;8.20;70.00;;;;;;5003055;28;20112;-50
2021/12/03 16:56:15;;;;;;;3.85;2.00;;;8.20;70.00;;;;;;4993588;28;20121;-49
2021/12/03 16:58:43;;;;;;;3.00;1.92;;;8.20;70.70;;;;;;5003182;28;20108;-51
2021/12/03 17:44:30;;;;;;;3.40;2.97;;;8.00;71.20;;;;;;5004544;28;20456;-51
2021/12/03 17:57:39;;;;;;;1.48;1.20;;;7.80;73.00;;;;;;4996329;28;20034;-53
2021/12/03 18:00:13;;;;;;;1.05;0.95;;;7.70;73.10;;;;;;5002650;28;20042;-54
2021/12/03 18:10:28;;;;;;;1.98;1.77;;;7.70;73.20;;;;;;4998368;28;20097;-48
2021/12/03 18:51:36;;;;;;;1.80;1.13;;;8.00;72.80;;;;;;5003132;28;20042;-50
2021/12/03 18:57:08;;;;;;;1.20;1.10;;;8.00;72.60;;;;;;4990033;28;20050;-50
2021/12/03 18:59:39;;;;;;;2.95;1.10;;;8.00;72.40;;;;;;4998469;28;20046;-50
2021/12/03 19:02:07;;;;;;;0.90;0.90;;;8.00;72.30;;;;;;5002870;28;20040;-46
2021/12/03 19:07:29;;;;;;;1.00;0.98;;;8.10;72.10;;;;;;5004029;28;20058;-46
2021/12/03 19:10:03;;;;;;;1.17;1.02;;;8.10;72.00;;;;;;5001693;28;20058;-47
2021/12/03 19:12:32;;;;;;;1.15;0.90;;;8.10;72.10;;;;;;5003139;28;20034;-46
2021/12/03 19:15:01;;;;;;;1.83;1.20;;;8.10;72.10;;;;;;5005448;28;20042;-46
2021/12/03 19:17:35;;;;;;;1.25;1.15;;;8.10;71.90;;;;;;5002333;28;20033;-46
2021/12/03 19:20:04;;;;;;;1.33;1.23;;;8.10;71.80;;;;;;5002215;28;20042;-46
2021/12/03 19:22:31;;;;;;;0.88;0.88;;;8.20;71.80;;;;;;5002679;28;20046;-47
2021/12/03 19:24:58;;;;;;;1.30;1.17;;;8.10;71.70;;;;;;5005616;28;20038;-46
2021/12/03 19:27:26;;;;;;;1.45;1.30;;;8.20;71.60;;;;;;5002703;28;20042;-47
2021/12/03 19:29:55;;;;;;;1.55;1.38;;;8.20;71.50;;;;;;5000079;28;20045;-47
2021/12/03 19:32:28;;;;;;;1.20;1.10;;;8.20;71.60;;;;;;5007144;28;20424;-48
2021/12/03 19:34:55;;;;;;;1.05;0.93;;;8.20;71.50;;;;;;5003105;28;20050;-46
2021/12/03 19:37:24;;;;;;;1.40;1.05;;;8.20;71.50;;;;;;5001643;28;20614;-47
2021/12/03 19:39:53;;;;;;;1.05;0.95;;;8.20;71.40;;;;;;5006086;28;20046;-46
2021/12/03 19:42:29;;;;;;;1.10;0.98;;;8.30;71.40;;;;;;5005630;28;20045;-46
2021/12/03 19:44:59;;;;;;;1.10;1.00;;;8.20;71.30;;;;;;5001193;28;20034;-50
2021/12/03 19:47:35;;;;;;;1.88;1.20;;;8.30;71.20;;;;;;5002269;28;20061;-46
2021/12/03 19:52:54;;;;;;;1.27;0.95;;;8.30;71.30;;;;;;5006703;28;20057;-46
2021/12/03 19:55:24;;;;;;;1.92;0.88;;;8.30;71.20;;;;;;5005077;28;20448;-46
2021/12/03 19:57:51;;;;;;;0.88;0.88;;;8.30;70.80;;;;;;5000350;28;20045;-46
2021/12/03 20:00:18;;;;;;;1.00;0.82;;;8.30;70.90;;;;;;5000676;28;20120;-46
2021/12/03 20:02:45;;;;;;;1.70;0.90;;;8.30;71.00;;;;;;5002829;28;20056;-46
2021/12/03 20:05:13;;;;;;;2.00;0.88;;;8.30;71.10;;;;;;5002475;28;20066;-46
2021/12/03 20:07:40;;;;;;;0.80;0.80;;;8.30;71.20;;;;;;5001311;28;20041;-47
2021/12/03 20:10:13;;;;;;;1.05;0.95;;;8.30;71.20;;;;;;5003027;28;20724;-46
2021/12/03 20:12:40;;;;;;;2.20;1.25;;;8.30;71.20;;;;;;5006304;28;20045;-46
2021/12/03 20:15:10;;;;;;;1.13;1.08;;;8.30;71.20;;;;;;5000929;28;20045;-47
2021/12/03 20:17:46;;;;;;;0.95;0.85;;;8.30;71.20;;;;;;5005767;28;20092;-50
2021/12/03 20:20:13;;;;;;;0.93;0.70;;;8.30;71.20;;;;;;5001929;28;20034;-46
2021/12/03 20:22:49;;;;;;;0.80;0.75;;;8.30;71.20;;;;;;5001609;28;20453;-47
2021/12/03 20:27:53;;;;;;;1.83;0.60;;;8.30;71.10;;;;;;5001570;28;20100;-46
2021/12/03 20:30:45;;;;;;;0.88;0.52;;;8.30;71.20;;;;;;5009369;28;20042;-46